Time;durP1;ratioP1;P1;durP2;ratioP2;P2;SDS_P1;SDS_P2;PMS_P1;PMS_P2;Temp;Humidity;BMP_temperature;BMP_pressure;BME280_temperature;BME280_humidity;BME280_pressure;Samples;Min_cycle;Max_cycle;Signal;HPM_P1;HPM_P2
2022/03/16 00:00:23;;;;;;;9.40;5.03;;;;;;;-0.46;65.86;102712.72;5081892;28;20075;-81
2022/03/16 00:02:49;;;;;;;11.93;5.63;;;;;;;-0.47;66.10;102702.94;5079286;28;20041;-80
2022/03/16 00:05:16;;;;;;;12.40;6.13;;;;;;;-0.52;66.14;102699.88;5079247;28;20123;-81
2022/03/16 00:07:42;;;;;;;8.05;4.93;;;;;;;-0.57;65.80;102698.66;5077947;28;20078;-80
2022/03/16 00:10:08;;;;;;;10.18;5.68;;;;;;;-0.62;66.01;102696.44;5074495;28;20036;-81
2022/03/16 00:12:35;;;;;;;8.95;5.15;;;;;;;-0.67;66.51;102704.16;5078318;28;20033;-81
2022/03/16 00:15:00;;;;;;;8.75;4.80;;;;;;;-0.66;66.40;102705.84;5079194;28;20044;-80
2022/03/16 00:17:26;;;;;;;14.10;4.90;;;;;;;-0.66;66.30;102703.16;5080048;28;20041;-80
2022/03/16 00:19:52;;;;;;;9.73;4.47;;;;;;;-0.68;66.22;102706.00;5083042;28;20122;-82
2022/03/16 00:22:17;;;;;;;10.30;4.88;;;;;;;-0.68;65.62;102705.16;5076183;28;20047;-81
2022/03/16 00:24:43;;;;;;;9.95;4.45;;;;;;;-0.71;65.41;102700.91;5080742;28;20060;-81
2022/03/16 00:27:09;;;;;;;11.85;4.60;;;;;;;-0.66;65.82;102697.75;5079308;28;20471;-80
2022/03/16 00:29:35;;;;;;;9.27;4.65;;;;;;;-0.64;65.24;102696.59;5082060;28;20161;-82
2022/03/16 00:32:01;;;;;;;7.13;4.10;;;;;;;-0.65;65.41;102686.81;5080296;28;20046;-80
2022/03/16 00:34:27;;;;;;;9.27;5.25;;;;;;;-0.60;65.38;102699.81;5075330;28;20032;-80
2022/03/16 00:36:52;;;;;;;8.23;4.30;;;;;;;-0.65;64.84;102705.69;5080377;28;20037;-80
2022/03/16 00:39:18;;;;;;;11.85;4.95;;;;;;;-0.68;65.25;102697.06;5076523;28;20039;-80
2022/03/16 00:41:44;;;;;;;6.95;4.30;;;;;;;-0.68;64.90;102700.59;5083559;28;20036;-80
2022/03/16 00:44:09;;;;;;;7.32;3.85;;;;;;;-0.73;64.75;102708.28;5079935;28;20344;-80
2022/03/16 00:46:36;;;;;;;7.85;4.18;;;;;;;-0.75;64.82;102698.69;5085598;28;20032;-80
2022/03/16 00:49:03;;;;;;;5.93;3.67;;;;;;;-0.83;64.39;102699.47;5080206;28;20391;-81
2022/03/16 00:51:29;;;;;;;6.97;3.75;;;;;;;-0.86;64.77;102701.63;5063138;28;20504;-80
2022/03/16 00:53:55;;;;;;;6.30;3.88;;;;;;;-0.88;64.66;102706.31;5083643;28;20046;-80
2022/03/16 00:56:20;;;;;;;6.32;4.05;;;;;;;-0.93;64.72;102706.78;5082878;28;20036;-80
2022/03/16 00:58:46;;;;;;;6.78;3.90;;;;;;;-0.95;65.03;102711.47;5081440;28;20082;-80
2022/03/16 01:01:12;;;;;;;7.38;3.85;;;;;;;-0.97;64.70;102710.78;5082982;28;20169;-79
2022/03/16 01:03:41;;;;;;;7.97;4.55;;;;;;;-1.00;64.79;102708.41;5083669;28;20491;-80
2022/03/16 01:06:15;;;;;;;7.32;3.83;;;;;;;-1.02;65.19;102710.41;5080674;28;20040;-80
2022/03/16 01:08:44;;;;;;;8.38;3.78;;;;;;;-1.04;64.37;102712.38;5080396;28;20040;-80
2022/03/16 01:11:10;;;;;;;;;;;;;;;-1.07;64.98;102713.56;5093893;28;20447;-81
2022/03/16 01:13:36;;;;;;;6.60;3.60;;;;;;;-1.04;64.96;102710.56;5092892;28;19924;-81
2022/03/16 01:16:02;;;;;;;7.88;3.88;;;;;;;-1.06;64.81;102717.94;5090281;28;20060;-81
2022/03/16 01:18:27;;;;;;;6.40;3.72;;;;;;;-1.09;64.54;102709.31;5084615;28;20509;-81
2022/03/16 01:20:53;;;;;;;8.02;3.97;;;;;;;-1.07;64.19;102710.00;5083789;28;20040;-81
2022/03/16 01:23:19;;;;;;;7.60;3.97;;;;;;;-1.08;64.08;102714.56;5076186;28;20044;-81
2022/03/16 01:25:44;;;;;;;8.27;4.20;;;;;;;-1.13;64.72;102708.78;5069274;28;20041;-80
2022/03/16 01:28:10;;;;;;;7.70;4.40;;;;;;;-1.15;64.63;102716.19;5080657;28;20086;-80
2022/03/16 01:30:36;;;;;;;7.15;3.70;;;;;;;-1.14;64.22;102712.47;5088731;28;20036;-81
2022/03/16 01:33:03;;;;;;;5.38;3.67;;;;;;;-1.22;64.16;102721.31;5083795;28;20036;-81
2022/03/16 01:35:29;;;;;;;7.90;3.97;;;;;;;-1.24;64.74;102723.31;5086904;28;20591;-81
2022/03/16 01:37:55;;;;;;;7.25;4.05;;;;;;;-1.24;64.56;102719.78;5088089;28;20594;-81
2022/03/16 01:40:20;;;;;;;6.60;3.72;;;;;;;-1.28;64.93;102721.94;5081721;28;20097;-82
2022/03/16 01:42:46;;;;;;;7.63;4.22;;;;;;;-1.29;64.84;102724.78;5076098;28;20048;-80
2022/03/16 01:45:12;;;;;;;7.15;3.88;;;;;;;-1.32;64.66;102731.31;5093067;28;20122;-81
2022/03/16 01:47:37;;;;;;;5.78;3.88;;;;;;;-1.36;64.76;102724.56;5080653;28;20483;-81
2022/03/16 01:50:04;;;;;;;5.00;3.60;;;;;;;-1.41;64.44;102720.59;5087485;28;20138;-81
2022/03/16 01:52:31;;;;;;;5.88;3.63;;;;;;;-1.34;64.81;102719.88;5077014;28;20427;-80
2022/03/16 01:54:58;;;;;;;7.53;4.28;;;;;;;-1.32;64.47;102720.56;5086588;28;20044;-80
2022/03/16 01:57:24;;;;;;;8.60;3.83;;;;;;;-1.35;64.66;102717.31;5060175;28;20063;-80
2022/03/16 01:59:50;;;;;;;7.53;3.65;;;;;;;-1.36;64.68;102724.56;5069104;28;20037;-80
2022/03/16 02:02:16;;;;;;;6.32;3.42;;;;;;;-1.37;64.13;102722.00;5061501;28;20048;-80
2022/03/16 02:04:42;;;;;;;6.18;3.80;;;;;;;-1.38;64.47;102717.63;5062653;28;20071;-79
2022/03/16 02:07:09;;;;;;;6.10;3.45;;;;;;;-1.39;64.42;102718.59;5084336;28;20047;-80
2022/03/16 02:09:34;;;;;;;7.38;3.67;;;;;;;-1.42;65.05;102726.97;5087191;28;20044;-79
2022/03/16 02:12:00;;;;;;;9.65;3.70;;;;;;;-1.46;64.06;102729.13;5086406;28;20105;-80
2022/03/16 02:14:26;;;;;;;6.50;3.42;;;;;;;-1.49;64.36;102729.44;5073510;28;20052;-80
2022/03/16 02:16:52;;;;;;;7.20;4.03;;;;;;;-1.48;64.30;102727.59;5085152;28;20032;-80
2022/03/16 02:19:17;;;;;;;10.05;3.80;;;;;;;-1.47;64.31;102731.97;5086431;28;20115;-80
2022/03/16 02:21:46;;;;;;;5.60;3.67;;;;;;;-1.54;64.43;102727.22;5081651;28;20159;-80
2022/03/16 02:24:12;;;;;;;8.90;3.67;;;;;;;-1.59;64.28;102724.09;5083404;28;20533;-81
2022/03/16 02:26:39;;;;;;;6.97;3.42;;;;;;;-1.60;64.56;102718.88;5074798;28;20466;-80
2022/03/16 02:29:04;;;;;;;7.75;3.35;;;;;;;-1.59;64.61;102728.63;5081963;28;20044;-79
2022/03/16 02:31:30;;;;;;;6.60;3.60;;;;;;;-1.60;64.27;102729.63;5075594;28;20035;-80
2022/03/16 02:33:55;;;;;;;6.50;3.42;;;;;;;-1.62;64.39;102728.94;5087693;28;20048;-80
2022/03/16 02:36:21;;;;;;;5.97;3.55;;;;;;;-1.64;64.46;102725.56;5074759;28;20075;-80
2022/03/16 02:38:47;;;;;;;5.35;3.30;;;;;;;-1.68;64.17;102724.16;5078310;28;20070;-80
2022/03/16 02:41:12;;;;;;;9.85;3.60;;;;;;;-1.69;64.08;102722.47;5086002;28;20061;-80
2022/03/16 02:43:38;;;;;;;7.70;3.10;;;;;;;-1.68;64.36;102724.16;5091765;28;20044;-80
2022/03/16 02:46:05;;;;;;;4.53;3.10;;;;;;;-1.71;64.01;102717.25;5072705;28;20033;-80
2022/03/16 02:48:30;;;;;;;6.30;3.22;;;;;;;-1.74;64.63;102728.28;5076804;28;20075;-80
2022/03/16 02:50:56;;;;;;;7.82;3.20;;;;;;;-1.67;64.47;102729.41;5085402;28;20503;-81
2022/03/16 02:53:22;;;;;;;6.47;2.95;;;;;;;-1.66;64.28;102731.09;5072907;28;20411;-80
2022/03/16 02:55:48;;;;;;;8.73;3.70;;;;;;;-1.70;64.37;102735.09;5081316;28;20044;-81
2022/03/16 02:58:14;;;;;;;6.07;4.00;;;;;;;-1.67;64.34;102734.78;5078244;28;20063;-81
2022/03/16 03:00:41;;;;;;;6.53;3.20;;;;;;;-1.70;64.29;102737.78;5081221;28;20143;-81
2022/03/16 03:03:07;;;;;;;7.03;3.20;;;;;;;-1.72;64.43;102749.69;5089378;28;20040;-81
2022/03/16 03:05:32;;;;;;;7.90;3.33;;;;;;;-1.72;64.33;102747.84;5080805;28;20036;-81
2022/03/16 03:07:59;;;;;;;9.45;3.20;;;;;;;-1.73;64.22;102751.53;5077573;28;20036;-81
2022/03/16 03:10:25;;;;;;;6.22;3.30;;;;;;;-1.73;63.73;102756.09;5086681;28;20036;-81
2022/03/16 03:12:51;;;;;;;7.25;3.70;;;;;;;-1.80;64.53;102757.66;5083376;28;20039;-80
2022/03/16 03:15:17;;;;;;;7.95;3.15;;;;;;;-1.83;64.07;102758.78;5081248;28;20062;-80
2022/03/16 03:17:42;;;;;;;7.45;3.30;;;;;;;-1.83;64.25;102753.41;5081840;28;20127;-80
2022/03/16 03:20:09;;;;;;;8.40;3.42;;;;;;;-1.82;63.93;102755.09;5086894;28;20414;-80
2022/03/16 03:22:35;;;;;;;8.15;4.07;;;;;;;-1.85;64.30;102758.94;5079137;28;20056;-80
2022/03/16 03:25:02;;;;;;;7.65;3.65;;;;;;;-1.87;64.04;102769.00;5075564;28;20070;-81
2022/03/16 03:27:30;;;;;;;6.32;3.30;;;;;;;-1.90;63.77;102761.25;5089400;28;20051;-80
2022/03/16 03:29:56;;;;;;;9.05;3.95;;;;;;;-1.89;64.18;102759.41;5087604;28;20273;-80
2022/03/16 03:32:22;;;;;;;10.48;4.13;;;;;;;-1.92;64.18;102763.19;5081032;28;20066;-80
2022/03/16 03:34:50;;;;;;;6.18;3.60;;;;;;;-1.98;64.44;102758.41;5079841;28;20518;-80
2022/03/16 03:37:15;;;;;;;5.88;3.58;;;;;;;-2.01;64.60;102761.41;5073580;28;20040;-80
2022/03/16 03:39:41;;;;;;;8.48;3.38;;;;;;;-2.01;64.11;102760.56;5073960;28;20043;-80
2022/03/16 03:42:08;;;;;;;8.38;3.65;;;;;;;-2.04;64.67;102760.88;5082106;28;20048;-79
2022/03/16 03:44:37;;;;;;;6.68;3.65;;;;;;;-2.02;64.32;102765.09;5057946;28;20556;-81
2022/03/16 03:47:07;;;;;;;6.75;3.30;;;;;;;-2.00;64.10;102764.94;5090710;28;20093;-78
2022/03/16 03:49:37;;;;;;;8.82;3.75;;;;;;;-2.01;64.43;102766.78;5081057;28;20040;-79
2022/03/16 03:52:03;;;;;;;8.35;3.88;;;;;;;-2.05;64.08;102776.16;5081706;28;20036;-79
2022/03/16 03:54:29;;;;;;;9.48;3.88;;;;;;;-2.06;64.91;102785.22;5082441;28;20173;-79
2022/03/16 03:57:17;;;;;;;6.97;3.50;;;;;;;-2.11;64.38;102782.09;5086802;28;20501;-79
2022/03/16 03:59:43;;;;;;;6.18;3.22;;;;;;;-2.14;64.34;102783.25;5088396;28;20035;-78
2022/03/16 04:02:09;;;;;;;12.50;4.45;;;;;;;-2.21;64.66;102786.66;5090209;28;20072;-78
2022/03/16 04:04:35;;;;;;;8.82;3.58;;;;;;;-2.28;64.53;102777.47;5078745;28;20117;-78
2022/03/16 04:07:00;;;;;;;8.48;3.88;;;;;;;-2.35;64.63;102787.97;5077986;28;20068;-76
2022/03/16 04:09:26;;;;;;;7.63;3.83;;;;;;;-2.39;64.77;102794.63;5075710;28;20048;-79
2022/03/16 04:11:52;;;;;;;8.57;3.53;;;;;;;-2.40;64.97;102787.56;5075120;28;20119;-79
2022/03/16 04:14:18;;;;;;;5.38;3.20;;;;;;;-2.41;65.19;102796.59;5082651;28;20046;-78
2022/03/16 04:16:43;;;;;;;5.40;3.38;;;;;;;-2.41;65.13;102798.44;5083914;28;20036;-78
2022/03/16 04:19:09;;;;;;;5.57;3.30;;;;;;;-2.42;65.15;102800.28;5076274;28;20123;-78
2022/03/16 04:21:35;;;;;;;7.53;3.58;;;;;;;-2.47;64.88;102794.47;5079671;28;20135;-78
2022/03/16 04:24:03;;;;;;;6.47;3.63;;;;;;;-2.44;65.35;102796.88;5057971;28;20309;-80
2022/03/16 04:26:29;;;;;;;8.07;3.92;;;;;;;-2.40;65.03;102801.00;5108895;28;20084;-80
2022/03/16 04:28:55;;;;;;;9.60;3.70;;;;;;;-2.32;65.00;102806.47;5102873;28;20032;-77
2022/03/16 04:31:21;;;;;;;9.73;3.90;;;;;;;-2.30;64.13;102806.34;5083126;28;20047;-80
2022/03/16 04:33:47;;;;;;;6.72;3.92;;;;;;;-2.26;64.46;102805.91;5099870;28;20528;-79
2022/03/16 04:36:12;;;;;;;4.97;3.67;;;;;;;-2.16;64.25;102805.91;5097556;28;20040;-78
2022/03/16 04:38:38;;;;;;;10.40;4.20;;;;;;;-1.96;64.10;102798.63;5104174;28;20040;-77
2022/03/16 04:41:04;;;;;;;7.20;4.00;;;;;;;-1.77;63.84;102801.25;5099166;28;20063;-79
2022/03/16 04:43:30;;;;;;;8.60;4.05;;;;;;;-1.70;62.88;102802.38;5105539;28;20048;-79
2022/03/16 04:45:55;;;;;;;7.68;4.03;;;;;;;-1.71;62.26;102808.75;5105300;28;20040;-80
2022/03/16 04:48:21;;;;;;;8.50;3.95;;;;;;;-1.63;62.55;102813.38;5095049;28;20092;-78
2022/03/16 04:50:47;;;;;;;9.18;4.13;;;;;;;-1.49;62.32;102809.38;5104245;28;20050;-79
2022/03/16 04:53:12;;;;;;;8.05;4.57;;;;;;;-1.24;61.12;102814.03;5107452;28;20044;-78
2022/03/16 04:55:38;;;;;;;10.10;4.03;;;;;;;-1.04;60.78;102810.25;5090741;28;20036;-79
2022/03/16 04:58:08;;;;;;;10.50;4.18;;;;;;;-0.75;60.46;102819.97;5072286;28;20143;-80
2022/03/16 05:00:35;;;;;;;7.43;3.70;;;;;;;-0.37;59.13;102816.13;5090732;28;20036;-79
2022/03/16 05:03:01;;;;;;;7.95;3.97;;;;;;;0.14;58.41;102819.88;5090452;28;20039;-79
2022/03/16 05:05:28;;;;;;;9.13;4.10;;;;;;;0.53;56.68;102817.56;5097133;28;20654;-79
2022/03/16 05:07:54;;;;;;;7.20;4.00;;;;;;;0.96;56.03;102834.63;5090504;28;20085;-79
2022/03/16 05:10:20;;;;;;;9.38;5.30;;;;;;;1.41;54.73;102824.25;5090526;28;20807;-79
2022/03/16 05:12:46;;;;;;;7.93;4.40;;;;;;;1.84;53.69;102818.69;5072523;28;20062;-80
2022/03/16 05:15:17;;;;;;;6.75;3.75;;;;;;;2.27;52.15;102820.16;5090365;28;20036;-79
2022/03/16 05:17:43;;;;;;;8.10;4.32;;;;;;;2.60;51.04;102831.72;5075943;28;20554;-79
2022/03/16 05:20:09;;;;;;;10.20;4.00;;;;;;;2.90;50.79;102822.78;5108473;28;20119;-81
2022/03/16 05:22:45;;;;;;;10.95;4.20;;;;;;;3.37;49.70;102827.28;5091724;28;20541;-79
2022/03/16 05:25:13;;;;;;;8.90;3.92;;;;;;;3.87;48.02;102829.44;5093428;28;20088;-80
2022/03/16 05:27:39;;;;;;;8.13;4.88;;;;;;;4.34;47.01;102822.00;5096344;28;20039;-79
2022/03/16 05:30:06;;;;;;;7.78;3.75;;;;;;;4.57;46.17;102816.50;5114469;28;20036;-79
2022/03/16 05:32:32;;;;;;;6.97;3.67;;;;;;;5.02;45.07;102824.41;5114339;28;20505;-78
2022/03/16 05:34:58;;;;;;;14.35;5.18;;;;;;;5.53;44.02;102820.75;5095005;28;20055;-79
2022/03/16 05:37:24;;;;;;;10.90;4.15;;;;;;;5.69;43.59;102829.50;5093795;28;20386;-78
2022/03/16 05:39:49;;;;;;;7.95;4.57;;;;;;;6.00;42.13;102826.47;5076439;28;20092;-79
2022/03/16 05:42:15;;;;;;;9.52;4.50;;;;;;;6.38;41.52;102834.31;5100403;28;20039;-80
2022/03/16 05:44:40;;;;;;;12.52;4.82;;;;;;;6.65;40.76;102835.31;5114219;28;20051;-78
2022/03/16 05:47:06;;;;;;;12.32;5.35;;;;;;;6.95;40.22;102831.28;5114149;28;20069;-79
2022/03/16 05:49:32;;;;;;;10.95;4.82;;;;;;;7.20;40.45;102839.75;5077710;28;20047;-79
2022/03/16 05:51:57;;;;;;;9.63;5.10;;;;;;;7.50;39.27;102834.81;5093792;28;20098;-79
2022/03/16 05:54:23;;;;;;;11.45;5.05;;;;;;;7.53;38.34;102839.00;5093747;28;20093;-80
2022/03/16 05:56:48;;;;;;;13.82;5.28;;;;;;;7.65;38.45;102836.53;5094043;28;20043;-80
2022/03/16 05:59:14;;;;;;;12.95;4.53;;;;;;;7.80;38.00;102842.63;5075381;28;20115;-81
2022/03/16 06:01:39;;;;;;;10.18;4.50;;;;;;;7.93;37.46;102841.78;5093637;28;20040;-80
2022/03/16 06:04:05;;;;;;;10.85;4.53;;;;;;;8.03;37.44;102845.81;5093436;28;20063;-79
2022/03/16 06:06:31;;;;;;;7.82;4.25;;;;;;;8.07;36.70;102844.31;5093348;28;20113;-79
2022/03/16 06:08:59;;;;;;;11.40;4.82;;;;;;;8.23;36.16;102847.69;5093492;28;20048;-79
2022/03/16 06:11:26;;;;;;;9.90;4.25;;;;;;;8.38;36.76;102846.44;5093170;28;20036;-79
2022/03/16 06:13:52;;;;;;;10.10;5.03;;;;;;;8.31;36.46;102847.44;5098537;28;20129;-79
2022/03/16 06:16:17;;;;;;;9.82;4.38;;;;;;;8.44;36.13;102855.69;5095271;28;20044;-80
2022/03/16 06:18:43;;;;;;;16.55;4.78;;;;;;;8.60;36.37;102857.97;5093294;28;20177;-78
2022/03/16 06:21:08;;;;;;;10.85;4.28;;;;;;;8.61;35.02;102859.66;5092992;28;20036;-79
2022/03/16 06:23:37;;;;;;;8.90;4.30;;;;;;;8.53;35.58;102848.09;5074911;28;20044;-79
2022/03/16 06:26:05;;;;;;;;;;;;;;;8.62;35.24;102861.31;5093840;28;20048;-80
2022/03/16 06:28:31;;;;;;;10.43;3.95;;;;;;;8.52;35.63;102860.09;5092992;28;19920;-80
2022/03/16 06:30:57;;;;;;;14.13;4.40;;;;;;;8.55;34.90;102860.50;5093373;28;20047;-80
2022/03/16 06:33:23;;;;;;;11.55;4.63;;;;;;;8.79;35.46;102855.41;5105069;28;20035;-79
2022/03/16 06:35:49;;;;;;;14.02;5.18;;;;;;;9.11;34.91;102865.41;5112893;28;20055;-80
2022/03/16 06:38:14;;;;;;;10.40;4.95;;;;;;;9.10;34.53;102866.44;5112933;28;20057;-80
2022/03/16 06:40:40;;;;;;;12.10;5.05;;;;;;;9.00;34.38;102868.78;5113400;28;20039;-79
2022/03/16 06:43:06;;;;;;;13.55;4.90;;;;;;;8.86;34.82;102876.25;5112575;28;20066;-80
2022/03/16 06:45:32;;;;;;;19.65;7.18;;;;;;;9.04;35.24;102875.53;5111245;28;20718;-80
2022/03/16 06:47:59;;;;;;;16.17;5.00;;;;;;;9.54;34.36;102870.22;5093723;28;20120;-80
2022/03/16 06:50:25;;;;;;;11.68;4.25;;;;;;;9.89;33.99;102870.63;5113067;28;20062;-80
2022/03/16 06:52:52;;;;;;;12.52;5.00;;;;;;;10.10;33.06;102870.28;5094863;28;20031;-79
2022/03/16 06:55:18;;;;;;;15.77;4.85;;;;;;;10.34;32.16;102881.50;5112659;28;20039;-80
2022/03/16 06:57:44;;;;;;;12.38;4.82;;;;;;;10.59;31.87;102879.59;5094821;28;20069;-79
2022/03/16 07:00:12;;;;;;;14.27;5.30;;;;;;;10.82;32.23;102879.75;5097840;28;20032;-79
2022/03/16 07:03:03;;;;;;;14.55;4.85;;;;;;;10.96;31.31;102883.19;5092297;28;20036;-80
2022/03/16 07:05:31;;;;;;;11.15;4.40;;;;;;;10.81;30.92;102888.22;5094534;28;20032;-80
2022/03/16 07:07:57;;;;;;;14.25;5.28;;;;;;;10.90;30.67;102896.97;5112746;28;20114;-79
2022/03/16 07:10:23;;;;;;;23.10;5.70;;;;;;;11.10;31.18;102894.84;5112163;28;20453;-80
2022/03/16 07:12:49;;;;;;;13.20;5.70;;;;;;;11.41;30.37;102893.81;5094468;28;20040;-80
2022/03/16 07:15:15;;;;;;;17.58;4.78;;;;;;;11.39;30.57;102904.22;5094381;28;20078;-79
2022/03/16 07:17:41;;;;;;;13.27;4.80;;;;;;;11.65;30.45;102894.78;5095381;28;20046;-79
2022/03/16 07:20:07;;;;;;;7.15;4.35;;;;;;;11.99;30.29;102901.50;5100211;28;20085;-80
2022/03/16 07:22:34;;;;;;;10.57;4.60;;;;;;;12.30;29.50;102905.84;5091842;28;20506;-80
2022/03/16 07:25:02;;;;;;;11.87;4.37;;;;;;;12.30;29.35;102903.94;5092239;28;20052;-80
2022/03/16 07:27:27;;;;;;;16.42;5.40;;;;;;;12.19;29.00;102913.03;5091772;28;20044;-79
2022/03/16 07:29:53;;;;;;;14.80;5.20;;;;;;;12.12;29.47;102911.44;5092064;28;20065;-79
2022/03/16 07:32:18;;;;;;;18.73;5.15;;;;;;;11.95;29.39;102906.63;5091931;28;20106;-79
2022/03/16 07:34:46;;;;;;;14.45;4.57;;;;;;;11.99;29.38;102913.34;5092062;28;20042;-79
2022/03/16 07:37:11;;;;;;;15.87;5.40;;;;;;;12.14;29.03;102906.53;5092731;28;20460;-80
2022/03/16 07:39:37;;;;;;;17.50;5.63;;;;;;;12.56;29.22;102912.84;5112121;28;20036;-80
2022/03/16 07:42:03;;;;;;;13.70;4.88;;;;;;;12.61;28.49;102912.94;5107473;28;20123;-81
2022/03/16 07:44:29;;;;;;;18.58;5.43;;;;;;;12.95;28.22;102912.09;5092879;28;20032;-78
2022/03/16 07:46:55;;;;;;;10.50;4.95;;;;;;;12.39;28.97;102912.69;5091674;28;20040;-79
2022/03/16 07:49:20;;;;;;;13.60;5.10;;;;;;;12.34;28.10;102913.44;5090964;28;20040;-80
2022/03/16 07:51:46;;;;;;;17.27;6.30;;;;;;;12.22;29.34;102919.97;5091631;28;20036;-80
2022/03/16 07:54:12;;;;;;;14.73;5.32;;;;;;;12.80;28.40;102920.00;5091909;28;20615;-81
2022/03/16 07:56:37;;;;;;;20.27;5.53;;;;;;;12.70;28.74;102922.53;5112110;28;20040;-80
2022/03/16 07:59:03;;;;;;;14.95;5.82;;;;;;;12.55;28.43;102927.69;5106994;28;20032;-80
2022/03/16 08:01:28;;;;;;;18.13;5.43;;;;;;;12.58;28.63;102930.78;5073145;28;20042;-79
2022/03/16 08:03:54;;;;;;;14.95;5.05;;;;;;;12.84;28.31;102920.34;5073478;28;20135;-78
2022/03/16 08:06:20;;;;;;;19.77;5.57;;;;;;;12.67;28.63;102926.63;5094032;28;20039;-81
2022/03/16 08:08:46;;;;;;;11.13;5.80;;;;;;;12.55;28.67;102924.94;5099016;28;20141;-81
2022/03/16 08:11:11;;;;;;;13.43;5.03;;;;;;;12.21;29.03;102921.06;5073164;28;20043;-79
2022/03/16 08:13:37;;;;;;;13.45;5.65;;;;;;;12.02;29.08;102934.06;5110083;28;20134;-79
2022/03/16 08:16:04;;;;;;;14.32;5.90;;;;;;;12.56;28.25;102932.13;5111354;28;20043;-80
2022/03/16 08:18:30;;;;;;;12.80;5.97;;;;;;;12.36;28.12;102927.78;5111386;28;20134;-79
2022/03/16 08:20:56;;;;;;;12.82;5.75;;;;;;;12.44;28.97;102925.75;5093747;28;20050;-80
2022/03/16 08:23:22;;;;;;;20.65;6.07;;;;;;;12.60;27.98;102931.38;5093145;28;20043;-80
2022/03/16 08:25:48;;;;;;;12.68;5.35;;;;;;;12.04;28.95;102938.25;5092471;28;20405;-81
2022/03/16 08:28:14;;;;;;;18.13;5.70;;;;;;;11.61;29.23;102924.63;5074071;28;20081;-81
2022/03/16 08:30:40;;;;;;;14.57;5.40;;;;;;;11.54;29.88;102934.91;5110194;28;20108;-81
2022/03/16 08:33:06;;;;;;;11.63;4.25;;;;;;;12.13;29.29;102933.22;5105581;28;20028;-82
2022/03/16 08:35:31;;;;;;;9.48;4.70;;;;;;;12.45;29.09;102932.94;5092360;28;20044;-83
2022/03/16 08:37:57;;;;;;;19.38;6.20;;;;;;;12.84;28.39;102932.25;5091527;28;20044;-83
2022/03/16 08:40:24;;;;;;;12.57;5.30;;;;;;;13.02;28.21;102939.53;5091863;28;20036;-83
2022/03/16 08:42:51;;;;;;;15.88;5.70;;;;;;;12.68;28.62;102933.81;5091032;28;20067;-84
2022/03/16 08:45:16;;;;;;;14.40;5.30;;;;;;;12.98;28.71;102941.06;5074463;28;20040;-79
2022/03/16 08:47:43;;;;;;;11.13;5.50;;;;;;;13.37;27.80;102936.75;5100037;28;20294;-83
2022/03/16 08:50:09;;;;;;;13.20;5.72;;;;;;;13.53;27.62;102935.94;5112551;28;20090;-81
2022/03/16 08:52:35;;;;;;;17.90;5.72;;;;;;;13.11;28.49;102948.25;5120608;28;20587;-84
2022/03/16 08:55:00;;;;;;;18.08;5.72;;;;;;;13.17;28.02;102941.78;5114461;28;20539;-84
2022/03/16 08:57:26;;;;;;;17.88;5.60;;;;;;;13.35;27.92;102944.41;5112009;28;20042;-83
2022/03/16 08:59:53;;;;;;;18.23;6.20;;;;;;;13.58;27.40;102935.25;5114336;28;20441;-84
2022/03/16 09:02:18;;;;;;;20.60;7.60;;;;;;;13.71;27.36;102940.47;5099503;28;20072;-78
2022/03/16 09:04:44;;;;;;;11.95;5.70;;;;;;;13.76;27.38;102937.81;5095758;28;20582;-77
2022/03/16 09:07:10;;;;;;;10.48;6.05;;;;;;;13.64;27.45;102950.81;5094664;28;20414;-79
2022/03/16 09:09:36;;;;;;;24.67;6.30;;;;;;;12.66;27.91;102946.94;5094874;28;20391;-79
2022/03/16 09:12:01;;;;;;;13.85;6.25;;;;;;;11.98;29.22;102954.88;5081168;28;20032;-78
2022/03/16 09:14:27;;;;;;;15.07;5.60;;;;;;;11.18;30.52;102953.09;5076891;28;20047;-78
2022/03/16 09:16:53;;;;;;;11.40;5.50;;;;;;;10.29;31.42;102956.28;5104570;28;20046;-77
2022/03/16 09:19:21;;;;;;;18.15;6.30;;;;;;;9.81;32.16;102954.00;5109135;28;20039;-77
2022/03/16 09:21:50;;;;;;;13.35;6.07;;;;;;;9.13;32.73;102963.78;5107076;28;20147;-75
2022/03/16 09:24:17;;;;;;;14.38;5.93;;;;;;;8.52;34.11;102962.19;5079037;28;20120;-76
2022/03/16 09:26:43;;;;;;;15.18;5.68;;;;;;;8.08;34.75;102970.94;5100611;28;20118;-78
2022/03/16 09:29:09;;;;;;;15.60;6.20;;;;;;;7.91;36.19;102965.00;5076203;28;20143;-78
2022/03/16 09:31:36;;;;;;;16.92;6.82;;;;;;;7.48;36.44;102976.22;5094040;28;20036;-78
2022/03/16 09:34:06;;;;;;;15.05;5.78;;;;;;;7.04;36.80;102978.50;5094844;28;20044;-83
2022/03/16 09:36:32;;;;;;;14.90;6.15;;;;;;;6.84;37.21;102981.09;5107500;28;20039;-84
2022/03/16 09:38:58;;;;;;;13.43;6.15;;;;;;;6.81;38.33;102982.34;5113587;28;20043;-77
2022/03/16 09:41:26;;;;;;;12.98;5.93;;;;;;;6.81;38.31;102985.06;5106957;28;20031;-78
2022/03/16 09:43:52;;;;;;;13.98;6.30;;;;;;;6.72;38.17;102982.69;5105400;28;20550;-78
2022/03/16 09:46:22;;;;;;;11.60;5.25;;;;;;;6.79;37.90;102980.88;5081645;28;20455;-80
2022/03/16 09:48:48;;;;;;;15.23;6.50;;;;;;;6.60;38.36;102985.97;5080718;28;20045;-78
2022/03/16 09:51:16;;;;;;;22.40;7.38;;;;;;;6.51;38.70;102987.13;5107971;28;20477;-79
2022/03/16 09:53:42;;;;;;;17.67;6.45;;;;;;;6.59;38.59;102983.41;5072267;28;20414;-78
2022/03/16 09:56:09;;;;;;;20.88;6.95;;;;;;;6.63;38.47;102984.72;5101567;28;20048;-79
2022/03/16 09:58:35;;;;;;;15.57;6.93;;;;;;;6.61;39.42;102989.53;5110067;28;20043;-79
2022/03/16 10:01:05;;;;;;;21.17;6.38;;;;;;;6.67;39.19;102998.81;5124124;27;20704;-79
2022/03/16 10:03:31;;;;;;;15.50;5.38;;;;;;;6.57;38.96;102999.97;5078690;28;20501;-78
2022/03/16 10:05:58;;;;;;;13.48;5.53;;;;;;;6.54;39.30;103005.00;5100602;27;20074;-78
2022/03/16 10:08:31;;;;;;;19.35;6.20;;;;;;;6.60;39.77;103006.94;5094484;28;20036;-79
2022/03/16 10:14:05;;;;;;;22.83;7.00;;;;;;;6.53;39.59;103008.75;5111271;28;20055;-78
2022/03/16 10:19:15;;;;;;;17.83;7.00;;;;;;;6.51;39.78;103017.13;5113578;28;20039;-83
2022/03/16 10:21:40;;;;;;;17.08;7.22;;;;;;;6.50;39.85;103017.34;5113713;28;20051;-83
2022/03/16 10:24:06;;;;;;;16.20;7.65;;;;;;;6.40;40.02;103014.09;5100019;28;20050;-78
2022/03/16 10:26:32;;;;;;;20.30;6.65;;;;;;;6.37;39.72;103014.47;5083495;28;20043;-77
2022/03/16 10:29:04;;;;;;;11.90;5.70;;;;;;;6.35;40.16;103012.78;5105777;28;20051;-81
2022/03/16 10:31:30;;;;;;;14.40;6.15;;;;;;;6.31;40.10;103016.97;5093469;28;20044;-82
2022/03/16 10:33:58;;;;;;;16.13;6.22;;;;;;;6.23;40.22;103017.06;5092141;28;20054;-81
2022/03/16 10:36:26;;;;;;;16.15;6.05;;;;;;;6.24;40.02;103018.75;5078671;28;20047;-82
2022/03/16 10:39:02;;;;;;;17.63;6.22;;;;;;;6.27;39.71;103023.84;5095069;28;20046;-82
2022/03/16 10:47:15;;;;;;;12.18;5.95;;;;;;;5.82;41.02;103024.13;5078081;28;20051;-81
2022/03/16 10:49:42;;;;;;;16.55;6.05;;;;;;;5.85;41.28;103029.19;5075075;28;20039;-80
2022/03/16 10:52:17;;;;;;;15.73;6.00;;;;;;;5.84;40.71;103031.06;5100762;28;20052;-82
2022/03/16 10:54:45;;;;;;;13.82;5.28;;;;;;;5.92;41.12;103024.72;5065809;28;20047;-82
2022/03/16 10:57:13;;;;;;;16.45;6.03;;;;;;;5.97;40.61;103030.44;5074601;28;20036;-81
2022/03/16 10:59:43;;;;;;;11.30;5.15;;;;;;;5.95;40.84;103024.31;5092653;28;20082;-81
2022/03/16 11:02:12;;;;;;;17.73;5.88;;;;;;;5.98;41.38;103026.66;5058565;28;20096;-83
2022/03/16 11:04:39;;;;;;;13.27;6.15;;;;;;;5.96;40.70;103032.31;5105682;27;20046;-85
2022/03/16 11:07:06;;;;;;;15.10;6.10;;;;;;;5.99;41.62;103025.63;5080990;28;20071;-85
2022/03/16 11:09:34;;;;;;;11.30;5.10;;;;;;;6.04;40.76;103040.34;5092332;28;20039;-86
2022/03/16 11:14:48;;;;;;;15.95;5.82;;;;;;;5.93;41.14;103042.75;5106036;28;20126;-85
2022/03/16 11:17:14;;;;;;;11.93;5.00;;;;;;;5.94;40.75;103044.44;5092215;28;20509;-84
2022/03/16 11:19:44;;;;;;;16.25;5.47;;;;;;;5.90;40.87;103038.53;5073968;28;20040;-86
2022/03/16 11:22:25;;;;;;;9.07;4.65;;;;;;;5.85;40.65;103045.53;5091108;28;20048;-85
2022/03/16 11:24:56;;;;;;;14.40;5.25;;;;;;;5.83;41.26;103047.59;5057302;28;20498;-85
2022/03/16 11:27:31;;;;;;;17.90;5.22;;;;;;;5.76;41.11;103036.66;5086587;28;20042;-85
2022/03/16 11:30:09;;;;;;;13.65;5.03;;;;;;;5.77;41.34;103043.78;5113049;28;20070;-86
2022/03/16 11:32:38;;;;;;;13.32;5.93;;;;;;;5.78;41.39;103045.47;5107019;28;20678;-86
2022/03/16 11:35:11;;;;;;;9.90;4.85;;;;;;;5.69;41.05;103042.00;5085616;28;20046;-81